Herowena Airstrip


Codes: AYHX/
Name: Herowena Airstrip
City: Herowana
Country: Papua New Guinea
Elevation: 4695 ft.

Photos at Herowena Airstrip


   Photos courtesy of SpottingLog. You can add your own sightings and photos by signing up for a free trial today.



No photos found.

Weather at Herowena Airstrip


Time (UTC)DescriptionTempratureWindCloud coverageVisibilityPressureHumidity
25-Jun-2024 15:00Light Rain17°C2 mph, N100%10000m1016hPa96%
25-Jun-2024 18:00Overcast Clouds17°C4 mph, NE95%10000m1015hPa95%
25-Jun-2024 21:00Broken Clouds16°C4 mph, NE80%10000m1015hPa91%
26-Jun-2024 00:00Broken Clouds24°C0 mph, S62%10000m1014hPa60%
26-Jun-2024 03:00Light Rain23°C2 mph, SW44%5672m1012hPa75%
26-Jun-2024 06:00Moderate Rain21°C2 mph, SW57%5161m1011hPa89%
26-Jun-2024 09:00Light Rain18°C2 mph, NE55%10000m1013hPa98%
26-Jun-2024 12:00Broken Clouds17°C2 mph, NE60%10000m1015hPa96%
26-Jun-2024 15:00Scattered Clouds16°C4 mph, NE37%10000m1014hPa96%
26-Jun-2024 18:00Broken Clouds16°C4 mph, NE67%10000m1014hPa94%
26-Jun-2024 21:00Overcast Clouds16°C4 mph, NE92%10000m1015hPa94%
27-Jun-2024 00:00Overcast Clouds23°C0 mph, S86%10000m1013hPa65%
27-Jun-2024 03:00Light Rain24°C4 mph, SW66%10000m1011hPa67%
27-Jun-2024 06:00Light Rain22°C2 mph, S83%10000m1010hPa89%
27-Jun-2024 09:00Moderate Rain18°C2 mph, E86%10000m1012hPa97%
27-Jun-2024 12:00Light Rain17°C2 mph, NE90%10000m1015hPa98%
27-Jun-2024 15:00Light Rain17°C2 mph, NE98%10000m1014hPa96%
27-Jun-2024 18:00Overcast Clouds16°C4 mph, NE98%10000m1014hPa95%
27-Jun-2024 21:00Overcast Clouds17°C4 mph, NE100%10000m1014hPa94%
28-Jun-2024 00:00Light Rain19°C2 mph, E96%10000m1015hPa95%
28-Jun-2024 03:00Light Rain19°C2 mph, NE100%10000m1014hPa95%
28-Jun-2024 06:00Light Rain19°C2 mph, NE100%10000m1013hPa95%
28-Jun-2024 09:00Overcast Clouds17°C4 mph, NE100%10000m1014hPa97%
28-Jun-2024 12:00Overcast Clouds16°C2 mph, NE100%10000m1016hPa95%
28-Jun-2024 15:00Broken Clouds16°C4 mph, NE67%10000m1015hPa95%
28-Jun-2024 18:00Broken Clouds15°C4 mph, NE82%10000m1014hPa95%
28-Jun-2024 21:00Overcast Clouds16°C4 mph, NE98%10000m1015hPa93%
29-Jun-2024 00:00Light Rain18°C2 mph, NE99%10000m1015hPa93%
29-Jun-2024 03:00Light Rain21°C2 mph, S91%10000m1012hPa79%
29-Jun-2024 06:00Light Rain21°C2 mph, S87%10000m1011hPa86%
29-Jun-2024 09:00Light Rain17°C2 mph, E82%10000m1014hPa98%
29-Jun-2024 12:00Broken Clouds16°C2 mph, NE82%10000m1015hPa97%
29-Jun-2024 15:00Light Rain15°C2 mph, NE68%10000m1015hPa95%
29-Jun-2024 18:00Broken Clouds14°C4 mph, NE78%10000m1014hPa93%
29-Jun-2024 21:00Overcast Clouds15°C4 mph, NE89%10000m1015hPa91%
30-Jun-2024 00:00Overcast Clouds23°C2 mph, E92%10000m1014hPa58%
30-Jun-2024 03:00Overcast Clouds22°C0 mph, S99%10000m1012hPa64%
30-Jun-2024 06:00Light Rain21°C2 mph, S96%10000m1010hPa79%
30-Jun-2024 09:00Light Rain17°C2 mph, E100%9031m1013hPa98%
30-Jun-2024 12:00Overcast Clouds17°C2 mph, NE100%10000m1015hPa93%